createdAt,value
2022-08-09T00:00:11.472Z,19.43
2022-08-09T00:01:16.400Z,19.41
2022-08-09T00:02:13.400Z,19.40
2022-08-09T00:04:00.487Z,19.39
2022-08-09T00:04:33.956Z,19.35
2022-08-09T00:06:18.384Z,19.32
2022-08-09T00:06:19.384Z,19.34
2022-08-09T00:07:13.143Z,19.33
2022-08-09T00:08:31.315Z,19.31
2022-08-09T00:09:13.160Z,19.32
2022-08-09T00:10:11.066Z,19.29
2022-08-09T00:11:24.466Z,19.32
2022-08-09T00:12:22.538Z,19.32
2022-08-09T00:13:17.443Z,19.27
2022-08-09T00:14:11.065Z,19.25
2022-08-09T00:15:14.666Z,19.21
2022-08-09T00:16:12.821Z,19.24
2022-08-09T00:18:04.418Z,19.24
2022-08-09T00:18:13.167Z,19.21
2022-08-09T00:19:11.077Z,19.23
2022-08-09T00:20:12.190Z,19.20
2022-08-09T00:21:11.063Z,19.18
2022-08-09T00:22:11.358Z,19.18
2022-08-09T00:23:54.930Z,19.18
2022-08-09T00:24:13.227Z,19.12
2022-08-09T00:25:12.874Z,19.10
2022-08-09T00:26:11.392Z,19.11
2022-08-09T00:27:11.060Z,19.11
2022-08-09T00:28:11.062Z,19.09
2022-08-09T00:29:12.465Z,19.06
2022-08-09T00:30:24.680Z,19.10
2022-08-09T00:31:56.995Z,19.07
2022-08-09T00:32:13.068Z,19.05
2022-08-09T00:33:13.137Z,19.06
2022-08-09T00:34:11.089Z,19.04
2022-08-09T00:35:11.059Z,19.01
2022-08-09T00:36:11.066Z,18.99
2022-08-09T00:37:11.064Z,18.98
2022-08-09T00:38:11.099Z,18.97
2022-08-09T00:40:09.356Z,18.95
2022-08-09T00:40:17.404Z,18.95
2022-08-09T00:41:13.146Z,18.88
2022-08-09T00:44:11.478Z,18.93
2022-08-09T00:44:13.330Z,18.91
2022-08-09T00:44:25.637Z,18.90
2022-08-09T00:45:14.868Z,18.91
2022-08-09T00:46:11.071Z,18.87
2022-08-09T00:47:15.313Z,18.88
2022-08-09T00:48:15.278Z,18.87
2022-08-09T00:49:13.143Z,18.89
2022-08-09T00:50:14.753Z,18.87
2022-08-09T00:51:13.131Z,18.84
2022-08-09T00:52:15.905Z,18.85
2022-08-09T00:53:13.131Z,18.84
2022-08-09T00:54:11.066Z,18.78
2022-08-09T00:55:32.749Z,18.82
2022-08-09T00:56:13.219Z,18.81
2022-08-09T00:57:11.168Z,18.79
2022-08-09T00:58:14.528Z,18.79
2022-08-09T00:59:11.075Z,18.80
2022-08-09T01:00:21.460Z,18.80
2022-08-09T01:01:18.224Z,18.75
2022-08-09T01:02:11.083Z,18.76
2022-08-09T01:03:16.068Z,18.78
2022-08-09T01:04:19.068Z,18.76
2022-08-09T01:05:21.984Z,18.78
2022-08-09T01:06:18.316Z,18.76
2022-08-09T01:07:19.068Z,18.76
2022-08-09T01:08:26.945Z,18.74
2022-08-09T01:09:21.197Z,18.75
2022-08-09T01:10:22.069Z,18.76
2022-08-09T01:11:22.088Z,18.74
2022-08-09T01:12:19.069Z,18.76
2022-08-09T01:13:19.072Z,18.75
2022-08-09T01:14:19.082Z,18.73
2022-08-09T01:15:16.990Z,18.74
2022-08-09T01:16:11.066Z,18.70
2022-08-09T01:17:16.035Z,18.68
2022-08-09T01:18:14.212Z,18.67
2022-08-09T01:19:39.566Z,18.67
2022-08-09T01:20:18.250Z,18.65
2022-08-09T01:21:20.161Z,18.67
2022-08-09T01:22:19.070Z,18.68
2022-08-09T01:24:01.780Z,18.68
2022-08-09T01:24:21.081Z,18.65
2022-08-09T01:25:19.360Z,18.64
2022-08-09T01:26:22.062Z,18.64
2022-08-09T01:27:15.061Z,18.60
2022-08-09T01:28:11.366Z,18.60
2022-08-09T01:29:12.066Z,18.57
2022-08-09T01:30:35.322Z,18.59
2022-08-09T01:32:29.179Z,18.61
2022-08-09T01:32:31.482Z,18.61
2022-08-09T01:33:13.222Z,18.63
2022-08-09T01:34:12.063Z,18.59
2022-08-09T01:35:28.944Z,18.59
2022-08-09T01:36:14.293Z,18.59
2022-08-09T01:37:12.066Z,18.58
2022-08-09T01:38:15.573Z,18.59
2022-08-09T01:39:11.090Z,18.56
2022-08-09T01:40:11.074Z,18.54
2022-08-09T01:41:25.568Z,18.54
2022-08-09T01:42:13.342Z,18.52
2022-08-09T01:43:11.070Z,18.51
2022-08-09T01:44:11.074Z,18.52
2022-08-09T01:45:11.068Z,18.48
2022-08-09T01:46:11.064Z,18.51
2022-08-09T01:47:14.120Z,18.49
2022-08-09T01:48:11.077Z,18.52
2022-08-09T01:49:17.071Z,18.51
2022-08-09T01:50:11.067Z,18.52
2022-08-09T01:51:11.065Z,18.53
2022-08-09T01:52:14.572Z,18.51
2022-08-09T01:53:19.788Z,18.53
2022-08-09T01:54:13.236Z,18.51
2022-08-09T01:55:11.073Z,18.51
2022-08-09T01:56:11.070Z,18.49
2022-08-09T01:57:16.067Z,18.49
2022-08-09T01:58:11.070Z,18.49
2022-08-09T01:59:11.075Z,18.50
2022-08-09T02:00:35.622Z,18.51
2022-08-09T02:01:18.107Z,18.50
2022-08-09T02:02:13.153Z,18.49
2022-08-09T02:03:13.659Z,18.49
2022-08-09T02:04:11.071Z,18.50
2022-08-09T02:05:15.590Z,18.52
2022-08-09T02:06:13.344Z,18.52
2022-08-09T02:08:35.059Z,18.51
2022-08-09T02:08:39.996Z,18.50
2022-08-09T02:09:13.226Z,18.52
2022-08-09T02:10:19.072Z,18.51
2022-08-09T02:11:17.213Z,18.50
2022-08-09T02:12:11.072Z,18.50
2022-08-09T02:13:14.129Z,18.50
2022-08-09T02:14:11.073Z,18.49
2022-08-09T02:15:15.387Z,18.48
2022-08-09T02:16:13.077Z,18.48
2022-08-09T02:17:15.076Z,18.47
2022-08-09T02:18:13.128Z,18.44
2022-08-09T02:19:11.078Z,18.46
2022-08-09T02:20:11.073Z,18.46
2022-08-09T02:21:17.313Z,18.45
2022-08-09T02:22:19.054Z,18.43
2022-08-09T02:23:19.350Z,18.43
2022-08-09T02:24:26.045Z,18.43
2022-08-09T02:25:17.333Z,18.42
2022-08-09T02:26:26.671Z,18.42
2022-08-09T02:27:14.147Z,18.41
2022-08-09T02:28:19.065Z,18.40
2022-08-09T02:29:24.086Z,18.41
2022-08-09T02:30:11.060Z,18.41
2022-08-09T02:31:19.061Z,18.41
2022-08-09T02:32:11.058Z,18.40
2022-08-09T02:33:14.541Z,18.38
2022-08-09T02:34:40.161Z,18.38
2022-08-09T02:35:19.293Z,18.37
2022-08-09T02:36:16.215Z,18.35
2022-08-09T02:37:14.066Z,18.36
2022-08-09T02:38:11.061Z,18.36
2022-08-09T02:39:33.197Z,18.33
2022-08-09T02:40:15.140Z,18.32
2022-08-09T02:41:15.148Z,18.33
2022-08-09T02:42:16.059Z,18.29
2022-08-09T02:43:11.059Z,18.28
2022-08-09T02:44:29.003Z,18.27
2022-08-09T02:45:17.142Z,18.28
2022-08-09T02:46:13.058Z,18.25
2022-08-09T02:47:14.066Z,18.26
2022-08-09T02:48:30.770Z,18.24
2022-08-09T02:49:17.158Z,18.18
2022-08-09T02:50:17.059Z,18.16
2022-08-09T02:51:12.059Z,18.13
2022-08-09T02:52:14.066Z,18.14
2022-08-09T02:53:25.777Z,18.13
2022-08-09T02:54:16.112Z,18.11
2022-08-09T02:55:20.102Z,18.10
2022-08-09T02:56:13.269Z,18.10
2022-08-09T02:57:13.887Z,18.10
2022-08-09T02:58:35.934Z,18.08
2022-08-09T02:59:25.782Z,18.06
2022-08-09T03:00:25.374Z,18.06
2022-08-09T03:01:21.605Z,18.07
2022-08-09T03:02:16.704Z,18.06
2022-08-09T03:03:11.061Z,18.06
2022-08-09T03:04:17.941Z,18.05
2022-08-09T03:05:16.659Z,18.06
2022-08-09T03:06:11.067Z,18.05
2022-08-09T03:07:14.397Z,18.05
2022-08-09T03:08:11.064Z,18.05
2022-08-09T03:09:11.066Z,18.04
2022-08-09T03:10:11.062Z,18.05
2022-08-09T03:11:13.176Z,18.02
2022-08-09T03:12:13.517Z,18.03
2022-08-09T03:13:11.070Z,18.00
2022-08-09T03:14:11.065Z,18.00
2022-08-09T03:15:11.067Z,18.01
2022-08-09T03:16:11.074Z,18.02
2022-08-09T03:17:20.507Z,17.99
2022-08-09T03:18:13.161Z,17.98
2022-08-09T03:19:14.586Z,18.00
2022-08-09T03:20:13.160Z,18.02
2022-08-09T03:21:11.065Z,18.00
2022-08-09T03:22:12.432Z,17.98
2022-08-09T03:23:24.706Z,17.99
2022-08-09T03:24:13.142Z,17.98
2022-08-09T03:25:25.870Z,17.99
2022-08-09T03:26:13.145Z,17.94
2022-08-09T03:27:11.059Z,17.94
2022-08-09T03:28:11.082Z,17.91
2022-08-09T03:29:22.538Z,17.90
2022-08-09T03:30:13.216Z,17.87
2022-08-09T03:31:21.238Z,17.88
2022-08-09T03:32:13.151Z,17.87
2022-08-09T03:33:16.918Z,17.85
2022-08-09T03:34:14.101Z,17.85
2022-08-09T03:35:24.277Z,17.83
2022-08-09T03:36:16.873Z,17.81
2022-08-09T03:37:55.393Z,17.79
2022-08-09T03:38:16.011Z,17.81
2022-08-09T03:39:13.163Z,17.77
2022-08-09T03:40:13.289Z,17.75
2022-08-09T03:41:15.604Z,17.75
2022-08-09T03:42:13.150Z,17.74
2022-08-09T03:43:13.169Z,17.73
2022-08-09T03:44:12.030Z,17.72
2022-08-09T03:45:11.060Z,17.70
2022-08-09T03:46:20.031Z,17.67
2022-08-09T03:47:13.156Z,17.65
2022-08-09T03:48:11.062Z,17.62
2022-08-09T03:49:11.066Z,17.61
2022-08-09T03:50:11.069Z,17.58
2022-08-09T03:51:57.222Z,17.57
2022-08-09T03:52:13.340Z,17.57
2022-08-09T03:53:11.072Z,17.52
2022-08-09T03:54:11.452Z,17.49
2022-08-09T03:55:11.059Z,17.48
2022-08-09T03:56:11.063Z,17.43
2022-08-09T03:57:17.959Z,17.43
2022-08-09T03:58:16.883Z,17.41
2022-08-09T03:59:20.956Z,17.41
2022-08-09T04:00:13.131Z,17.39
2022-08-09T04:01:11.123Z,17.41
2022-08-09T04:02:11.065Z,17.40
2022-08-09T04:03:11.825Z,17.37
2022-08-09T04:04:14.690Z,17.36
2022-08-09T04:05:17.275Z,17.37
2022-08-09T04:06:13.214Z,17.37
2022-08-09T04:07:11.061Z,17.40
2022-08-09T04:08:11.069Z,17.37
2022-08-09T04:09:11.066Z,17.38
2022-08-09T04:10:13.139Z,17.39
2022-08-09T04:11:11.117Z,17.36
2022-08-09T04:12:40.534Z,17.34
2022-08-09T04:13:18.646Z,17.34
2022-08-09T04:14:53.068Z,17.34
2022-08-09T04:15:29.496Z,17.35
2022-08-09T04:16:19.633Z,17.35
2022-08-09T04:17:13.159Z,17.34
2022-08-09T04:18:16.688Z,17.31
2022-08-09T04:19:15.945Z,17.26
2022-08-09T04:20:13.335Z,17.27
2022-08-09T04:21:11.075Z,17.28
2022-08-09T04:22:11.974Z,17.26
2022-08-09T04:23:17.165Z,17.23
2022-08-09T04:24:13.140Z,17.19
2022-08-09T04:25:11.061Z,17.20
2022-08-09T04:26:11.059Z,17.19
2022-08-09T04:27:11.059Z,17.20
2022-08-09T04:28:12.501Z,17.21
2022-08-09T04:29:15.451Z,17.21
2022-08-09T04:30:11.063Z,17.18
2022-08-09T04:31:13.046Z,17.18
2022-08-09T04:32:11.059Z,17.19
2022-08-09T04:33:11.062Z,17.19
2022-08-09T04:34:11.061Z,17.19
2022-08-09T04:35:11.058Z,17.17
2022-08-09T04:36:11.063Z,17.16
2022-08-09T04:37:11.062Z,17.15
2022-08-09T04:38:13.164Z,17.17
2022-08-09T04:39:12.173Z,17.18
2022-08-09T04:40:11.068Z,17.20
2022-08-09T04:41:11.885Z,17.19
2022-08-09T04:42:11.061Z,17.19
2022-08-09T04:43:11.070Z,17.15
2022-08-09T04:44:11.400Z,17.14
2022-08-09T04:45:11.058Z,17.12
2022-08-09T04:46:19.345Z,17.13
2022-08-09T04:47:13.173Z,17.12
2022-08-09T04:48:11.062Z,17.11
2022-08-09T04:49:11.062Z,17.11
2022-08-09T04:50:11.065Z,17.09
2022-08-09T04:51:11.059Z,17.07
2022-08-09T04:52:11.063Z,17.05
2022-08-09T04:53:11.632Z,17.05
2022-08-09T04:54:11.063Z,17.03
2022-08-09T04:55:11.877Z,17.03
2022-08-09T04:56:11.064Z,17.00
2022-08-09T04:57:12.321Z,16.97
2022-08-09T04:58:11.064Z,16.96
2022-08-09T04:59:15.382Z,16.99
2022-08-09T05:00:11.071Z,16.97
2022-08-09T05:01:16.384Z,16.98
2022-08-09T05:02:13.262Z,16.98
2022-08-09T05:03:30.588Z,16.97
2022-08-09T05:04:13.176Z,16.96
2022-08-09T05:05:11.061Z,16.97
2022-08-09T05:06:12.079Z,16.98
2022-08-09T05:07:19.407Z,17.00
2022-08-09T05:08:14.030Z,17.01
2022-08-09T05:09:11.062Z,17.02
2022-08-09T05:10:11.069Z,17.00
2022-08-09T05:11:11.067Z,16.99
2022-08-09T05:12:12.571Z,17.00
2022-08-09T05:13:11.066Z,17.01
2022-08-09T05:14:11.079Z,17.00
2022-08-09T05:15:11.368Z,17.01
2022-08-09T05:16:11.066Z,17.02
2022-08-09T05:18:39.658Z,17.03
2022-08-09T05:18:42.926Z,17.02
2022-08-09T05:19:13.211Z,17.02
2022-08-09T05:20:11.066Z,17.03
2022-08-09T05:21:22.848Z,17.00
2022-08-09T05:22:33.493Z,17.03
2022-08-09T05:23:58.182Z,17.05
2022-08-09T05:24:13.143Z,17.08
2022-08-09T05:25:11.062Z,17.09
2022-08-09T05:26:11.053Z,17.02
2022-08-09T05:27:13.399Z,17.02
2022-08-09T05:28:11.065Z,17.02
2022-08-09T05:29:17.328Z,17.00
2022-08-09T05:30:13.135Z,17.00
2022-08-09T05:31:11.064Z,16.99
2022-08-09T05:32:11.060Z,17.01
2022-08-09T05:33:11.055Z,17.00
2022-08-09T05:34:16.944Z,17.00
2022-08-09T05:35:13.136Z,17.00
2022-08-09T05:36:11.121Z,17.01
2022-08-09T05:37:11.440Z,16.99
2022-08-09T05:38:11.067Z,16.98
2022-08-09T05:39:13.287Z,16.96
2022-08-09T05:40:11.114Z,16.96
2022-08-09T05:41:12.632Z,16.98
2022-08-09T05:42:18.023Z,16.99
2022-08-09T05:43:13.174Z,17.00
2022-08-09T05:44:11.056Z,17.01
2022-08-09T05:45:14.350Z,17.01
2022-08-09T05:46:11.064Z,17.02
2022-08-09T05:47:11.059Z,17.02
2022-08-09T05:48:11.074Z,17.01
2022-08-09T05:49:19.088Z,17.04
2022-08-09T05:50:26.004Z,17.05
2022-08-09T05:51:30.173Z,17.05
2022-08-09T05:52:13.153Z,17.06
2022-08-09T05:53:11.753Z,17.05
2022-08-09T05:54:13.324Z,17.00
2022-08-09T05:55:20.536Z,17.01
2022-08-09T05:56:16.151Z,17.02
2022-08-09T05:58:18.418Z,17.02
2022-08-09T05:59:13.364Z,17.06
2022-08-09T06:00:11.170Z,17.05
2022-08-09T06:01:11.187Z,17.07
2022-08-09T06:02:16.991Z,17.09
2022-08-09T06:03:19.565Z,17.11
2022-08-09T06:04:13.684Z,17.12
2022-08-09T06:05:11.132Z,17.15
2022-08-09T06:06:11.133Z,17.14
2022-08-09T06:07:11.141Z,17.15
2022-08-09T06:08:13.419Z,17.17
2022-08-09T06:09:23.202Z,17.21
2022-08-09T06:10:15.734Z,17.20
2022-08-09T06:11:16.225Z,17.24
2022-08-09T06:12:13.466Z,17.25
2022-08-09T06:13:12.027Z,17.28
2022-08-09T06:14:13.578Z,17.28
2022-08-09T06:15:11.181Z,17.29
2022-08-09T06:16:11.136Z,17.32
2022-08-09T06:17:11.141Z,17.33
2022-08-09T06:18:11.335Z,17.34
2022-08-09T06:19:11.138Z,17.36
2022-08-09T06:20:11.101Z,17.37
2022-08-09T06:21:11.176Z,17.37
2022-08-09T06:22:15.251Z,17.37
2022-08-09T06:23:12.021Z,17.41
2022-08-09T06:24:11.128Z,17.42
2022-08-09T06:25:12.326Z,17.46
2022-08-09T06:26:13.685Z,17.49
2022-08-09T06:27:11.132Z,17.51
2022-08-09T06:28:11.137Z,17.55
2022-08-09T06:29:14.945Z,17.57
2022-08-09T06:30:14.005Z,17.58
2022-08-09T06:31:11.136Z,17.60
2022-08-09T06:32:52.888Z,17.63
2022-08-09T06:33:41.178Z,17.65
2022-08-09T06:34:13.565Z,17.63
2022-08-09T06:35:11.131Z,17.64
2022-08-09T06:36:13.669Z,17.67
2022-08-09T06:37:11.138Z,17.66
2022-08-09T06:38:11.162Z,17.68
2022-08-09T06:39:12.327Z,17.69
2022-08-09T06:40:21.676Z,17.71
2022-08-09T06:41:19.206Z,17.73
2022-08-09T06:42:13.451Z,17.73
2022-08-09T06:43:11.458Z,17.70
2022-08-09T06:44:11.128Z,17.75
2022-08-09T06:46:04.463Z,17.76
2022-08-09T06:46:40.054Z,17.77
2022-08-09T06:47:13.314Z,17.79
2022-08-09T06:48:11.102Z,17.85
2022-08-09T06:49:15.956Z,17.87
2022-08-09T06:50:13.783Z,17.88
2022-08-09T06:51:11.127Z,17.93
2022-08-09T06:52:12.053Z,17.95
2022-08-09T06:53:11.134Z,17.99
2022-08-09T06:54:14.650Z,18.01
2022-08-09T06:55:12.974Z,18.05
2022-08-09T06:56:11.141Z,18.06
2022-08-09T06:57:11.243Z,18.07
2022-08-09T06:58:28.473Z,18.11
2022-08-09T07:00:49.541Z,18.15
2022-08-09T07:00:51.245Z,18.18
2022-08-09T07:01:13.556Z,18.20
2022-08-09T07:02:11.185Z,18.24
2022-08-09T07:03:13.529Z,18.28
2022-08-09T07:04:11.135Z,18.30
2022-08-09T07:05:13.592Z,18.28
2022-08-09T07:06:11.188Z,18.29
2022-08-09T07:07:11.867Z,18.33
2022-08-09T07:08:11.117Z,18.32
2022-08-09T07:09:14.360Z,18.33
2022-08-09T07:10:29.365Z,18.32
2022-08-09T07:11:23.360Z,18.34
2022-08-09T07:12:17.907Z,18.38
2022-08-09T07:13:27.634Z,18.41
2022-08-09T07:14:13.592Z,18.43
2022-08-09T07:16:34.790Z,18.46
2022-08-09T07:16:41.057Z,18.47
2022-08-09T07:17:13.465Z,18.50
2022-08-09T07:18:11.181Z,18.52
2022-08-09T07:19:11.120Z,18.54
2022-08-09T07:20:11.142Z,18.57
2022-08-09T07:21:11.248Z,18.62
2022-08-09T07:22:11.671Z,18.66
2022-08-09T07:23:18.910Z,18.70
2022-08-09T07:24:13.653Z,18.73
2022-08-09T07:25:11.181Z,18.79
2022-08-09T07:26:11.174Z,18.82
2022-08-09T07:27:26.970Z,18.86
2022-08-09T09:44:15.634Z,26.12
2022-08-09T09:45:14.117Z,26.17
2022-08-09T09:46:41.734Z,26.22
2022-08-09T09:47:13.318Z,26.20
2022-08-09T09:48:11.065Z,26.22
2022-08-09T09:49:13.059Z,26.30
2022-08-09T09:50:16.838Z,26.42
2022-08-09T09:51:25.869Z,26.52
2022-08-09T09:52:33.447Z,26.61
2022-08-09T09:53:17.348Z,26.74
2022-08-09T09:54:20.390Z,26.78
2022-08-09T09:55:28.407Z,26.77
2022-08-09T09:56:31.146Z,26.82
2022-08-09T09:58:01.004Z,26.87
2022-08-09T09:58:18.903Z,26.73
2022-08-09T09:59:13.302Z,26.82
2022-08-09T10:00:19.068Z,27.00
2022-08-09T10:01:36.758Z,27.12
2022-08-09T10:02:13.288Z,27.11
2022-08-09T10:03:11.697Z,27.17
2022-08-09T10:04:22.902Z,27.33
2022-08-09T10:05:13.146Z,27.35
2022-08-09T10:06:12.457Z,27.42
2022-08-09T10:07:19.062Z,27.48
2022-08-09T10:08:28.012Z,27.62
2022-08-09T10:09:21.878Z,27.66
2022-08-09T10:10:13.716Z,27.76
2022-08-09T10:11:59.570Z,27.72
2022-08-09T10:12:28.667Z,27.62
2022-08-09T10:13:13.292Z,27.88
2022-08-09T10:14:27.463Z,27.92
2022-08-09T10:15:17.708Z,28.03
2022-08-09T10:16:56.979Z,28.05
2022-08-09T10:17:40.101Z,28.11
2022-08-09T10:18:15.126Z,28.18
2022-08-09T10:19:11.070Z,28.14
2022-08-09T10:20:27.316Z,28.20
2022-08-09T10:21:14.086Z,28.04
2022-08-09T10:22:11.069Z,27.81
2022-08-09T10:23:20.169Z,28.03
2022-08-09T10:24:16.023Z,28.22
2022-08-09T10:25:14.735Z,28.26
2022-08-09T10:26:11.200Z,28.25
2022-08-09T10:27:17.467Z,28.37
2022-08-09T10:28:13.172Z,28.34
2022-08-09T10:29:22.659Z,28.31
2022-08-09T10:31:27.902Z,28.41
2022-08-09T10:32:38.206Z,28.57
2022-08-09T10:34:07.710Z,28.64
2022-08-09T10:34:32.344Z,28.64
2022-08-09T10:35:13.410Z,28.67
2022-08-09T10:36:12.272Z,28.69
2022-08-09T10:37:13.803Z,28.78
2022-08-09T10:38:33.787Z,28.74
2022-08-09T10:39:15.989Z,28.78
2022-08-09T10:40:35.138Z,28.87
2022-08-09T10:41:13.119Z,28.93
2022-08-09T10:42:11.059Z,28.97
2022-08-09T10:43:11.070Z,28.85
2022-08-09T10:44:11.073Z,28.66
2022-08-09T10:45:12.310Z,28.76
2022-08-09T10:46:24.837Z,28.76
2022-08-09T10:48:13.245Z,28.91
2022-08-09T10:48:30.311Z,28.85
2022-08-09T10:49:23.302Z,28.68
2022-08-09T10:50:30.793Z,28.89
2022-08-09T10:51:29.869Z,28.98
2022-08-09T10:52:21.272Z,29.03
2022-08-09T10:53:19.068Z,28.71
2022-08-09T10:54:12.513Z,28.80
2022-08-09T10:55:19.067Z,29.03
2022-08-09T10:56:15.073Z,29.10
2022-08-09T10:57:15.157Z,29.18
2022-08-09T10:58:17.253Z,28.98
2022-08-09T10:59:21.075Z,29.13
2022-08-09T11:00:21.067Z,29.08
2022-08-09T11:03:11.527Z,29.20
2022-08-09T11:03:13.914Z,29.03
2022-08-09T11:03:51.422Z,29.21
2022-08-09T11:04:27.864Z,29.09
2022-08-09T11:05:25.221Z,29.29
2022-08-09T11:06:22.856Z,29.38
2022-08-09T11:07:19.071Z,29.33
2022-08-09T11:08:19.081Z,29.37
2022-08-09T11:09:15.996Z,29.56
2022-08-09T11:10:11.068Z,29.54
2022-08-09T11:11:11.071Z,29.56
2022-08-09T11:12:14.069Z,29.67
2022-08-09T11:13:49.854Z,29.59
2022-08-09T11:14:28.046Z,29.66
2022-08-09T11:15:23.906Z,29.56
2022-08-09T11:16:33.574Z,29.58
2022-08-09T11:17:21.307Z,29.60
2022-08-09T11:18:11.076Z,29.67
2022-08-09T11:19:11.538Z,29.83
2022-08-09T11:20:23.013Z,29.84
2022-08-09T11:21:13.182Z,29.82
2022-08-09T11:22:21.500Z,29.77
2022-08-09T11:23:13.208Z,29.77
2022-08-09T11:24:11.058Z,29.71
2022-08-09T11:25:16.058Z,29.81
2022-08-09T11:26:19.058Z,29.75
2022-08-09T11:27:25.455Z,29.76
2022-08-09T11:28:27.750Z,29.77
2022-08-09T11:29:17.063Z,29.93
2022-08-09T11:30:32.476Z,29.92
2022-08-09T11:31:33.815Z,29.95
2022-08-09T11:32:13.200Z,29.95
2022-08-09T11:33:23.061Z,29.93
2022-08-09T11:34:16.063Z,29.85
2022-08-09T11:35:16.061Z,29.75
2022-08-09T11:36:11.060Z,29.56
2022-08-09T11:37:18.130Z,29.36
2022-08-09T11:38:22.302Z,29.26
2022-08-09T11:39:13.125Z,29.18
2022-08-09T11:40:11.063Z,29.12
2022-08-09T11:41:21.065Z,29.17
2022-08-09T11:42:14.971Z,29.14
2022-08-09T11:43:14.066Z,29.28
2022-08-09T11:44:11.065Z,29.24
2022-08-09T11:45:19.063Z,29.41
2022-08-09T11:46:11.060Z,29.53
2022-08-09T11:47:14.498Z,29.66
2022-08-09T11:48:26.095Z,29.82
2022-08-09T11:49:17.058Z,29.77
2022-08-09T11:50:53.222Z,29.72
2022-08-09T11:52:48.963Z,29.65
2022-08-09T11:53:02.535Z,29.79
2022-08-09T11:54:01.832Z,29.88
2022-08-09T11:54:27.950Z,29.71
2022-08-09T11:55:34.667Z,29.44
2022-08-09T11:56:21.337Z,29.31
2022-08-09T11:57:28.310Z,29.21
2022-08-09T11:58:32.666Z,29.10
2022-08-09T11:59:13.069Z,28.99
2022-08-09T12:00:16.855Z,28.81
2022-08-09T12:01:15.211Z,28.64
2022-08-09T12:02:36.903Z,28.65
2022-08-09T12:03:56.113Z,28.55
2022-08-09T12:04:23.577Z,28.66
2022-08-09T12:05:17.450Z,28.82
2022-08-09T12:06:26.683Z,28.98
2022-08-09T12:07:14.231Z,29.08
2022-08-09T12:08:12.402Z,29.17
2022-08-09T12:09:19.280Z,29.28
2022-08-09T12:10:32.060Z,29.45
2022-08-09T12:11:16.216Z,29.64
2022-08-09T12:12:20.026Z,29.74
2022-08-09T12:14:07.823Z,29.91
2022-08-09T12:14:41.099Z,29.95
2022-08-09T12:15:48.478Z,29.95
2022-08-09T12:16:37.550Z,29.97
2022-08-09T12:17:27.877Z,30.01
2022-08-09T12:18:30.164Z,29.77
2022-08-09T12:19:13.177Z,29.82
2022-08-09T12:20:22.465Z,29.66
2022-08-09T12:21:28.520Z,29.57
2022-08-09T12:22:13.176Z,29.56
2022-08-09T12:23:11.059Z,29.46
2022-08-09T12:24:11.060Z,29.45
2022-08-09T12:25:17.064Z,29.31
2022-08-09T12:26:11.070Z,29.32
2022-08-09T12:28:59.903Z,29.45
2022-08-09T12:29:00.216Z,29.48
2022-08-09T12:29:29.635Z,29.52
2022-08-09T12:30:39.131Z,29.61
2022-08-09T12:31:58.028Z,29.52
2022-08-09T12:32:13.138Z,29.46
2022-08-09T12:33:11.058Z,29.47
2022-08-09T12:34:11.062Z,29.45
2022-08-09T12:35:13.312Z,29.38
2022-08-09T12:36:27.680Z,29.29
2022-08-09T12:37:23.765Z,28.99
2022-08-09T12:38:29.435Z,28.96
2022-08-09T12:39:17.336Z,29.19
2022-08-09T12:40:11.062Z,29.29
2022-08-09T12:41:11.060Z,29.37
2022-08-09T12:42:16.245Z,29.39
2022-08-09T12:43:11.064Z,29.51
2022-08-09T12:44:12.963Z,29.59
2022-08-09T12:45:34.266Z,29.68
2022-08-09T12:46:13.186Z,29.78
2022-08-09T12:47:11.062Z,29.87
2022-08-09T12:48:28.015Z,29.96
2022-08-09T12:49:13.146Z,29.86
2022-08-09T12:50:15.062Z,29.85
2022-08-09T12:51:11.061Z,29.88
2022-08-09T12:52:11.066Z,29.86
2022-08-09T12:53:23.802Z,29.74
2022-08-09T12:54:13.121Z,29.55
2022-08-09T12:56:14.121Z,29.32
2022-08-09T12:56:39.669Z,29.18
2022-08-09T12:57:13.074Z,29.07
2022-08-09T12:58:27.314Z,29.10
2022-08-09T12:59:13.902Z,29.12
2022-08-09T13:00:25.209Z,29.27
2022-08-09T13:01:19.083Z,29.41
2022-08-09T13:02:11.075Z,29.42
2022-08-09T13:03:20.608Z,29.49
2022-08-09T13:04:36.609Z,29.57
2022-08-09T13:05:13.223Z,29.59
2022-08-09T13:06:19.643Z,29.73
2022-08-09T13:07:19.933Z,29.87
2022-08-09T13:08:21.200Z,29.79
2022-08-09T13:09:17.150Z,29.87
2022-08-09T13:10:11.068Z,29.92
2022-08-09T13:11:23.273Z,29.92
2022-08-09T13:12:13.185Z,29.85
2022-08-09T13:13:13.220Z,29.88
2022-08-09T13:14:41.457Z,29.84
2022-08-09T13:15:13.204Z,29.88
2022-08-09T13:16:11.084Z,29.83
2022-08-09T13:17:16.012Z,29.91
2022-08-09T13:18:17.410Z,29.87
2022-08-09T13:19:13.209Z,30.01
2022-08-09T13:20:16.369Z,30.05
2022-08-09T13:22:33.350Z,30.06
2022-08-09T13:23:00.687Z,30.07
2022-08-09T13:24:17.397Z,30.12
2022-08-09T13:24:44.903Z,30.10
2022-08-09T13:25:14.368Z,30.10
2022-08-09T13:26:11.059Z,30.02
2022-08-09T13:27:19.072Z,30.05
2022-08-09T13:28:11.062Z,30.04
2022-08-09T13:29:17.347Z,30.08
2022-08-09T13:30:49.324Z,30.18
2022-08-09T13:32:17.050Z,30.29
2022-08-09T13:32:19.577Z,30.29
2022-08-09T13:33:17.131Z,30.30
2022-08-09T13:34:11.058Z,30.35
2022-08-09T13:35:11.680Z,30.39
2022-08-09T13:36:38.269Z,30.40
2022-08-09T13:37:13.195Z,30.40
2022-08-09T13:38:17.454Z,30.43
2022-08-09T13:41:18.947Z,30.43
2022-08-09T13:41:54.739Z,30.42
2022-08-09T13:41:55.414Z,30.42
2022-08-09T13:42:13.276Z,30.37
2022-08-09T13:43:15.555Z,30.24
2022-08-09T13:44:13.472Z,30.21
2022-08-09T13:45:12.410Z,30.06
2022-08-09T13:47:14.635Z,30.13
2022-08-09T13:47:33.097Z,30.09
2022-08-09T13:48:14.424Z,30.06
2022-08-09T13:49:18.340Z,30.07
2022-08-09T13:50:18.310Z,30.15
2022-08-09T13:51:13.207Z,30.15
2022-08-09T13:52:11.065Z,30.18
2022-08-09T13:53:13.299Z,30.28
2022-08-09T13:54:13.515Z,30.23
2022-08-09T13:55:13.698Z,30.25
2022-08-09T13:56:12.117Z,30.09
2022-08-09T13:57:14.426Z,30.08
2022-08-09T13:58:13.203Z,30.03
2022-08-09T13:59:11.078Z,29.85
2022-08-09T14:00:15.528Z,29.88
2022-08-09T14:01:13.487Z,29.88
2022-08-09T14:02:13.295Z,29.94
2022-08-09T14:04:02.712Z,29.93
2022-08-09T14:04:13.274Z,29.86
2022-08-09T14:05:12.278Z,29.88
2022-08-09T14:06:25.658Z,29.90
2022-08-09T14:07:13.172Z,29.87
2022-08-09T14:08:11.069Z,29.90
2022-08-09T14:09:11.069Z,29.91
2022-08-09T14:10:17.302Z,29.91
2022-08-09T14:11:16.098Z,29.94
2022-08-09T14:12:15.482Z,30.05
2022-08-09T14:13:12.145Z,29.97
2022-08-09T14:14:22.412Z,30.03
2022-08-09T14:16:06.932Z,30.10
2022-08-09T14:16:13.705Z,30.10
2022-08-09T14:17:12.539Z,30.12
2022-08-09T14:18:19.154Z,30.24
2022-08-09T14:19:13.100Z,30.25
2022-08-09T14:20:11.069Z,30.29
2022-08-09T14:21:11.072Z,30.39
2022-08-09T14:22:11.069Z,30.40
2022-08-09T14:23:11.054Z,30.36
2022-08-09T14:24:18.706Z,30.40
2022-08-09T14:25:13.203Z,30.39
2022-08-09T14:26:11.063Z,30.43
2022-08-09T14:27:19.756Z,30.43
2022-08-09T14:28:13.179Z,30.43
2022-08-09T14:29:25.764Z,30.41
2022-08-09T14:30:36.746Z,30.40
2022-08-09T14:31:13.195Z,30.36
2022-08-09T14:32:13.387Z,30.35
2022-08-09T14:33:13.191Z,30.28
2022-08-09T14:34:13.133Z,30.24
2022-08-09T14:35:11.060Z,30.20
2022-08-09T14:36:19.769Z,30.14
2022-08-09T14:37:13.257Z,30.12
2022-08-09T14:38:11.091Z,30.05
2022-08-09T14:39:11.160Z,30.03
2022-08-09T14:40:11.127Z,30.03
2022-08-09T14:41:24.109Z,29.94
2022-08-09T14:42:13.195Z,29.98
2022-08-09T14:43:15.957Z,30.00
2022-08-09T14:44:13.207Z,29.99
2022-08-09T14:46:57.369Z,30.01
2022-08-09T14:46:59.033Z,29.94
2022-08-09T14:47:41.239Z,29.99
2022-08-09T14:48:13.267Z,29.98
2022-08-09T14:49:11.061Z,29.94
2022-08-09T14:50:11.109Z,29.86
2022-08-09T14:51:11.067Z,29.91
2022-08-09T14:52:11.066Z,29.86
2022-08-09T14:53:12.230Z,29.88
2022-08-09T14:54:11.068Z,29.89
2022-08-09T14:55:11.064Z,29.84
2022-08-09T14:56:13.297Z,29.78
2022-08-09T14:57:11.068Z,29.80
2022-08-09T14:58:11.073Z,29.81
2022-08-09T14:59:14.299Z,29.77
2022-08-09T15:00:11.070Z,29.75
2022-08-09T15:01:11.151Z,29.70
2022-08-09T15:02:11.067Z,29.58
2022-08-09T15:03:11.077Z,29.52
2022-08-09T15:04:11.068Z,29.54
2022-08-09T15:05:11.071Z,29.44
2022-08-09T15:06:11.070Z,29.32
2022-08-09T15:07:11.069Z,29.07
2022-08-09T15:08:11.065Z,29.21
2022-08-09T15:09:13.219Z,29.31
2022-08-09T15:10:14.031Z,29.33